createdAt,value
2022-11-05T00:00:07.248Z,10.17
2022-11-05T00:05:28.407Z,10.17
2022-11-05T00:10:32.602Z,10.12
2022-11-05T00:15:53.958Z,9.99
2022-11-05T00:20:56.619Z,9.31
2022-11-05T00:26:01.088Z,10.06
2022-11-05T00:31:09.543Z,10.04
2022-11-05T00:36:12.421Z,9.99
2022-11-05T00:41:14.957Z,9.99
2022-11-05T00:46:18.809Z,10.05
2022-11-05T00:51:21.351Z,9.82
2022-11-05T00:56:24.408Z,9.86
2022-11-05T01:01:28.383Z,9.86
2022-11-05T01:06:31.064Z,9.91
2022-11-05T01:11:37.086Z,9.88
2022-11-05T01:16:41.749Z,9.80
2022-11-05T01:21:44.326Z,9.59
2022-11-05T01:26:46.867Z,9.64
2022-11-05T01:31:51.064Z,9.56
2022-11-05T01:36:53.703Z,9.40
2022-11-05T01:41:56.363Z,9.64
2022-11-05T01:47:00.605Z,9.65
2022-11-05T01:52:05.633Z,9.51
2022-11-05T01:57:11.553Z,9.58
2022-11-05T02:02:15.672Z,9.55
2022-11-05T02:07:19.283Z,9.38
2022-11-05T02:12:23.863Z,9.37
2022-11-05T02:17:41.023Z,9.45
2022-11-05T02:23:13.721Z,9.28
2022-11-05T02:28:37.330Z,9.24
2022-11-05T02:33:49.202Z,9.14
2022-11-05T02:38:59.513Z,9.31
2022-11-05T02:44:15.295Z,9.24
2022-11-05T02:49:31.930Z,9.16
2022-11-05T02:54:39.239Z,9.05
2022-11-05T02:59:41.741Z,8.78
2022-11-05T03:04:46.083Z,9.03
2022-11-05T03:10:15.779Z,8.84
2022-11-05T03:15:31.542Z,8.74
2022-11-05T03:20:40.162Z,8.93
2022-11-05T03:25:46.876Z,8.66
2022-11-05T03:30:52.259Z,8.37
2022-11-05T03:35:59.915Z,8.59
2022-11-05T03:41:07.429Z,8.69
2022-11-05T03:46:13.339Z,8.68
2022-11-05T03:51:30.647Z,8.67
2022-11-05T03:56:38.369Z,8.78
2022-11-05T04:01:42.911Z,8.60
2022-11-05T04:07:04.519Z,8.65
2022-11-05T04:12:36.282Z,8.69
2022-11-05T04:17:38.817Z,8.67
2022-11-05T04:23:00.015Z,8.69
2022-11-05T04:28:02.570Z,8.64
2022-11-05T04:33:07.046Z,8.56
2022-11-05T04:38:12.830Z,8.59
2022-11-05T04:43:17.983Z,8.64
2022-11-05T04:48:20.857Z,8.63
2022-11-05T04:53:25.337Z,8.54
2022-11-05T04:58:27.833Z,8.35
2022-11-05T05:03:30.334Z,8.25
2022-11-05T05:08:34.690Z,7.84
2022-11-05T05:13:37.258Z,8.12
2022-11-05T05:18:43.609Z,8.18
2022-11-05T05:23:49.846Z,8.29
2022-11-05T05:28:53.093Z,8.32
2022-11-05T05:33:56.213Z,8.33
2022-11-05T05:39:00.095Z,8.29
2022-11-05T05:44:02.720Z,8.21
2022-11-05T05:49:12.083Z,8.07
2022-11-05T05:54:16.846Z,8.01
2022-11-05T05:59:19.421Z,7.95
2022-11-05T06:04:22.127Z,7.98
2022-11-05T06:09:26.053Z,7.96
2022-11-05T06:14:28.589Z,7.96
2022-11-05T06:19:31.104Z,8.10
2022-11-05T06:24:34.960Z,8.02
2022-11-05T06:29:37.508Z,7.92
2022-11-05T06:34:40.032Z,8.00
2022-11-05T06:39:44.330Z,7.72
2022-11-05T06:44:46.953Z,7.66
2022-11-05T06:49:49.590Z,7.93
2022-11-05T06:54:53.465Z,7.90
2022-11-05T07:00:01.334Z,7.84
2022-11-05T07:05:07.177Z,7.76
2022-11-05T07:10:14.350Z,7.67
2022-11-05T07:15:17.403Z,7.68
2022-11-05T07:20:19.934Z,7.82
2022-11-05T07:25:23.918Z,7.83
2022-11-05T07:30:26.911Z,7.97
2022-11-05T07:35:29.907Z,7.97
2022-11-05T07:40:34.178Z,8.23
2022-11-05T07:45:36.736Z,8.15
2022-11-05T07:50:39.341Z,8.29
2022-11-05T07:55:45.792Z,8.27
2022-11-05T08:00:48.514Z,8.25
2022-11-05T08:05:51.344Z,8.42
2022-11-05T08:10:55.258Z,8.37
2022-11-05T08:15:58.257Z,8.46
2022-11-05T08:21:02.410Z,8.47
2022-11-05T08:26:06.690Z,8.65
2022-11-05T08:31:10.114Z,8.68
2022-11-05T08:36:12.773Z,8.83
2022-11-05T08:41:17.471Z,8.89
2022-11-05T08:46:20.028Z,9.02
2022-11-05T08:51:22.602Z,9.15
2022-11-05T08:56:26.865Z,9.31
2022-11-05T09:01:29.667Z,9.33
2022-11-05T09:06:32.324Z,9.47
2022-11-05T09:12:05.205Z,9.45
2022-11-05T09:16:58.752Z,9.70
2022-11-05T09:22:01.304Z,9.64
2022-11-05T09:27:05.511Z,9.85
2022-11-05T09:32:08.222Z,10.00
2022-11-05T09:37:10.946Z,10.04
2022-11-05T09:42:18.784Z,10.20
2022-11-05T09:47:25.231Z,10.34
2022-11-05T09:52:30.427Z,10.37
2022-11-05T09:57:44.578Z,10.46
2022-11-05T10:02:51.604Z,10.48
2022-11-05T10:07:58.338Z,10.47
2022-11-05T10:13:08.748Z,10.51
2022-11-05T10:18:17.364Z,10.74
2022-11-05T10:23:22.360Z,10.86
2022-11-05T10:28:27.900Z,10.98
2022-11-05T10:33:34.362Z,11.14
2022-11-05T10:38:37.104Z,11.28
2022-11-05T10:43:48.457Z,11.34
2022-11-05T10:49:04.588Z,11.45
2022-11-05T10:54:14.656Z,11.60
2022-11-05T10:59:24.212Z,11.34
2022-11-05T11:04:32.349Z,11.69
2022-11-05T11:09:39.835Z,11.72
2022-11-05T11:14:49.550Z,11.92
2022-11-05T11:19:53.481Z,11.96
2022-11-05T11:24:56.022Z,11.97
2022-11-05T11:30:02.134Z,12.02
2022-11-05T11:35:06.621Z,12.09
2022-11-05T11:40:17.172Z,11.82
2022-11-05T11:45:28.381Z,11.86
2022-11-05T11:50:37.697Z,12.14
2022-11-05T11:55:40.572Z,12.33
2022-11-05T12:00:51.073Z,12.06
2022-11-05T12:06:02.577Z,12.22
2022-11-05T12:11:11.773Z,11.67
2022-11-05T12:16:25.661Z,12.53
2022-11-05T12:21:53.427Z,12.60
2022-11-05T12:27:09.371Z,12.69
2022-11-05T12:32:34.528Z,12.77
2022-11-05T12:37:47.397Z,12.55
2022-11-05T12:43:07.744Z,12.39
2022-11-05T12:48:37.258Z,12.61
2022-11-05T12:53:52.902Z,12.42
2022-11-05T12:59:01.818Z,12.54
2022-11-05T13:04:14.455Z,12.42
2022-11-05T13:09:22.289Z,12.40
2022-11-05T13:14:29.707Z,12.29
2022-11-05T13:19:37.625Z,12.38
2022-11-05T13:24:54.408Z,12.46
2022-11-05T13:30:04.092Z,12.37
2022-11-05T13:35:16.827Z,12.52
2022-11-05T13:40:25.426Z,12.49
2022-11-05T13:46:05.708Z,12.54
2022-11-05T13:51:39.485Z,12.54
2022-11-05T13:56:56.959Z,12.52
2022-11-05T14:02:02.475Z,12.45
2022-11-05T14:07:12.551Z,12.47
2022-11-05T14:12:23.669Z,12.36
2022-11-05T14:17:33.949Z,12.40
2022-11-05T14:22:42.557Z,12.36
2022-11-05T14:27:47.751Z,12.31
2022-11-05T14:32:50.899Z,12.30
2022-11-05T14:37:56.711Z,12.25
2022-11-05T14:43:02.046Z,12.11
2022-11-05T14:48:07.759Z,12.35
2022-11-05T14:53:29.546Z,12.27
2022-11-05T14:58:35.291Z,12.27
2022-11-05T15:04:01.713Z,12.29
2022-11-05T15:09:22.595Z,12.25
2022-11-05T15:14:33.194Z,12.25
2022-11-05T15:19:38.686Z,12.23
2022-11-05T15:24:43.708Z,12.17
2022-11-05T15:29:46.309Z,12.10
2022-11-05T15:34:53.135Z,12.13
2022-11-05T15:39:57.078Z,12.12
2022-11-05T15:45:00.620Z,12.09
2022-11-05T15:50:13.073Z,12.03
2022-11-05T15:55:23.786Z,11.99
2022-11-05T16:00:29.023Z,11.85
2022-11-05T16:05:34.914Z,11.96
2022-11-05T16:10:39.995Z,11.84
2022-11-05T16:15:54.374Z,11.79
2022-11-05T16:21:05.510Z,11.73
2022-11-05T16:31:38.097Z,11.77
2022-11-05T16:36:40.735Z,11.75
2022-11-05T16:41:46.380Z,11.74
2022-11-05T16:46:52.056Z,11.73
2022-11-05T16:51:54.630Z,11.82
2022-11-05T16:56:57.385Z,11.83
2022-11-05T17:02:01.607Z,11.80
2022-11-05T17:07:04.307Z,11.82
2022-11-05T17:12:07.212Z,11.66
2022-11-05T17:17:11.688Z,11.81
2022-11-05T17:22:14.249Z,11.76
2022-11-05T17:27:16.810Z,11.67
2022-11-05T17:32:20.717Z,11.68
2022-11-05T17:37:23.510Z,11.71
2022-11-05T17:42:26.115Z,11.64
2022-11-05T17:47:30.784Z,11.52
2022-11-05T17:52:33.538Z,11.45
2022-11-05T17:57:36.078Z,11.47
2022-11-05T18:02:40.288Z,11.16
2022-11-05T18:07:43.564Z,11.46
2022-11-05T18:12:46.269Z,11.30
2022-11-05T18:17:50.188Z,11.53
2022-11-05T18:22:53.229Z,11.54
2022-11-05T18:27:55.808Z,11.37
2022-11-05T18:32:59.759Z,11.43
2022-11-05T18:38:02.363Z,11.38
2022-11-05T18:43:05.002Z,11.42
2022-11-05T18:48:09.347Z,11.43
2022-11-05T18:53:12.078Z,11.49
2022-11-05T18:58:15.371Z,11.34
2022-11-05T19:03:19.402Z,11.41
2022-11-05T19:08:22.078Z,11.36
2022-11-05T19:13:25.184Z,11.25
2022-11-05T19:18:29.859Z,11.32
2022-11-05T19:23:37.627Z,11.25
2022-11-05T19:28:46.651Z,10.89
2022-11-05T19:33:52.219Z,11.03
2022-11-05T19:38:57.399Z,11.23
2022-11-05T19:44:01.523Z,11.20
2022-11-05T19:49:09.721Z,11.21
2022-11-05T19:54:12.381Z,11.45
2022-11-05T19:59:14.929Z,11.34
2022-11-05T20:04:18.811Z,11.11
2022-11-05T20:09:22.987Z,10.73
2022-11-05T20:14:26.924Z,10.93
2022-11-05T20:19:30.858Z,11.03
2022-11-05T20:24:33.377Z,10.94
2022-11-05T20:29:36.143Z,10.96
2022-11-05T20:34:40.287Z,11.05
2022-11-05T20:39:46.087Z,8.86
2022-11-05T20:44:53.001Z,11.04
2022-11-05T20:50:00.002Z,9.71
2022-11-05T20:55:03.214Z,11.10
2022-11-05T21:00:07.809Z,10.69
2022-11-05T21:05:35.148Z,10.16
2022-11-05T21:10:39.477Z,10.28
2022-11-05T21:15:48.739Z,10.85
2022-11-05T21:20:52.998Z,10.89
2022-11-05T21:25:56.398Z,10.97
2022-11-05T21:31:02.004Z,10.93
2022-11-05T21:36:11.528Z,10.93
2022-11-05T21:41:14.543Z,10.95
2022-11-05T21:46:17.235Z,10.74
2022-11-05T21:51:38.704Z,10.68
2022-11-05T21:56:59.014Z,10.46
2022-11-05T22:02:05.016Z,10.61
2022-11-05T22:23:22.332Z,10.67
2022-11-05T22:28:25.698Z,10.59
2022-11-05T22:33:28.842Z,10.51
2022-11-05T22:38:32.774Z,10.75
2022-11-05T22:43:35.603Z,10.87
2022-11-05T22:48:39.365Z,10.90
2022-11-05T22:53:44.495Z,10.84
2022-11-05T22:58:47.731Z,10.82
2022-11-05T23:03:52.690Z,10.75
2022-11-05T23:09:14.407Z,10.69
2022-11-05T23:14:17.519Z,10.66
2022-11-05T23:19:37.743Z,10.62
2022-11-05T23:24:41.790Z,10.14
2022-11-05T23:29:44.520Z,10.62
2022-11-05T23:34:47.088Z,10.54
2022-11-05T23:39:51.145Z,9.88
2022-11-05T23:45:14.575Z,10.33
2022-11-05T23:50:17.677Z,10.34
2022-11-05T23:55:22.012Z,10.27
